Time;durP1;ratioP1;P1;durP2;ratioP2;P2;SDS_P1;SDS_P2;PMS_P1;PMS_P2;Temp;Humidity;BMP_temperature;BMP_pressure;BME280_temperature;BME280_humidity;BME280_pressure;Samples;Min_cycle;Max_cycle;Signal;HPM_P1;HPM_P2
2022/12/19 00:00:45;;;;;;;0.20;0.20;;;-2.90;99.90;-5.20;96624.00;;;;5069417;28;20247;-75
2022/12/19 00:03:13;;;;;;;0.20;0.20;;;-3.00;99.90;-5.20;96515.00;;;;5078863;28;20291;-75
2022/12/19 00:05:42;;;;;;;0.20;0.20;;;-2.90;99.90;-5.20;96435.00;;;;5079665;28;20746;-75
2022/12/19 00:08:16;;;;;;;0.20;0.20;;;-3.00;99.90;-5.30;96423.00;;;;5079880;28;20200;-74
2022/12/19 00:10:56;;;;;;;0.20;0.20;;;-3.00;99.90;-5.30;96388.00;;;;5089984;28;20539;-75
2022/12/19 00:13:24;;;;;;;0.20;0.20;;;-3.00;99.90;-5.20;96283.00;;;;5079325;28;20573;-75
2022/12/19 00:15:53;;;;;;;0.20;0.20;;;-3.00;99.90;-5.20;96389.00;;;;5073334;28;20262;-76
2022/12/19 00:18:21;;;;;;;0.20;0.20;;;-3.00;99.90;-5.20;96442.00;;;;5080854;28;20202;-75
2022/12/19 00:20:59;;;;;;;0.20;0.20;;;-3.00;99.90;-5.30;96451.00;;;;5062189;28;20194;-74
2022/12/19 00:23:30;;;;;;;0.20;0.20;;;-3.10;99.90;-5.30;96428.00;;;;5072562;28;20197;-76
2022/12/19 00:26:10;;;;;;;0.20;0.20;;;-3.10;99.90;-5.20;96285.00;;;;5087894;28;20189;-76
2022/12/19 00:28:41;;;;;;;0.20;0.20;;;-3.00;99.90;-5.30;96178.00;;;;5079039;28;20302;-75
2022/12/19 00:31:10;;;;;;;0.20;0.20;;;-3.10;99.90;-5.30;96214.00;;;;5082724;28;20205;-76
2022/12/19 00:33:39;;;;;;;0.20;0.20;;;-3.00;99.90;-5.20;96486.00;;;;5080404;28;20206;-71
2022/12/19 00:36:14;;;;;;;0.20;0.20;;;-3.00;99.90;-5.30;96448.00;;;;5067284;28;20245;-71
2022/12/19 00:38:51;;;;;;;0.20;0.20;;;-3.00;99.90;-5.30;96619.00;;;;5076215;28;20248;-70
2022/12/19 00:41:23;;;;;;;0.20;0.20;;;-3.10;99.90;-5.30;96582.00;;;;5069198;28;20190;-70
2022/12/19 00:43:54;;;;;;;0.20;0.20;;;-3.10;99.90;-5.20;96485.00;;;;5080417;28;20217;-71
2022/12/19 00:46:24;;;;;;;0.20;0.20;;;-3.00;99.90;-5.20;96527.00;;;;5096632;28;20201;-71
2022/12/19 00:48:53;;;;;;;0.20;0.20;;;-3.00;99.90;-5.20;96509.00;;;;5075611;28;20586;-71
2022/12/19 00:51:26;;;;;;;0.30;0.30;;;-3.00;99.90;-5.20;96503.00;;;;5073722;28;20220;-70
2022/12/19 00:53:56;;;;;;;0.20;0.20;;;-3.00;99.90;-5.20;96523.00;;;;5087388;28;20198;-71
2022/12/19 00:56:28;;;;;;;0.20;0.20;;;-3.00;99.90;-5.30;96437.00;;;;5080685;28;20221;-70
2022/12/19 00:58:57;;;;;;;0.20;0.20;;;-3.10;99.90;-5.30;96383.00;;;;5060427;28;20224;-70
2022/12/19 01:01:29;;;;;;;0.20;0.20;;;-3.10;99.90;-5.30;96408.00;;;;5086471;28;20197;-71
2022/12/19 01:03:58;;;;;;;0.20;0.20;;;-3.00;99.90;-5.30;96459.00;;;;5076407;28;20201;-70
2022/12/19 01:06:46;;;;;;;0.20;0.20;;;-3.10;99.90;-5.30;96507.00;;;;5086836;28;20675;-70
2022/12/19 01:09:15;;;;;;;0.20;0.20;;;-3.10;99.90;-5.30;96415.00;;;;5083620;28;20251;-70
2022/12/19 01:14:30;;;;;;;0.20;0.20;;;-3.10;99.90;-5.40;96445.00;;;;5081531;28;20659;-71
2022/12/19 01:16:58;;;;;;;0.20;0.20;;;-3.10;99.90;-5.40;96397.00;;;;5072587;28;20225;-70
2022/12/19 01:19:27;;;;;;;0.25;0.25;;;-3.10;99.90;-5.30;96429.00;;;;5080158;28;20226;-71
2022/12/19 01:21:55;;;;;;;0.20;0.20;;;-3.10;99.90;-5.60;96462.00;;;;5067102;28;20227;-70
2022/12/19 01:24:24;;;;;;;0.20;0.20;;;-3.10;99.90;-5.40;96460.00;;;;5064505;28;20251;-72
2022/12/19 01:26:53;;;;;;;0.20;0.20;;;-3.10;99.90;-5.40;96524.00;;;;5077396;28;20259;-72
2022/12/19 01:29:21;;;;;;;0.20;0.20;;;-3.20;99.90;-5.50;96378.00;;;;5083915;28;20700;-71
2022/12/19 01:31:56;;;;;;;0.20;0.20;;;-3.20;99.90;-5.50;96357.00;;;;5078484;28;20247;-73
2022/12/19 01:34:28;;;;;;;0.28;0.28;;;-3.20;99.90;-5.50;96330.00;;;;5085477;28;20606;-70
2022/12/19 01:36:57;;;;;;;0.20;0.20;;;-3.20;99.90;-5.50;96313.00;;;;5082302;28;20216;-72
2022/12/19 01:39:25;;;;;;;0.20;0.20;;;-3.20;99.90;-5.60;96253.00;;;;5070539;28;20221;-70
2022/12/19 01:41:59;;;;;;;0.30;0.30;;;-3.30;99.90;-5.60;96269.00;;;;5071273;28;20194;-70
2022/12/19 01:44:28;;;;;;;0.30;0.30;;;-3.30;99.90;-5.60;96309.00;;;;5078595;28;20201;-71
2022/12/19 01:46:58;;;;;;;0.30;0.30;;;-3.30;99.90;-5.60;96206.00;;;;5078978;28;20259;-72
2022/12/19 01:49:31;;;;;;;0.20;0.20;;;-3.30;99.90;-5.60;96272.00;;;;5074178;28;20807;-70
2022/12/19 01:52:06;;;;;;;0.20;0.20;;;-3.30;99.90;-5.60;96327.00;;;;5071540;28;20202;-71
2022/12/19 01:54:40;;;;;;;0.20;0.20;;;-3.30;99.90;-5.60;96236.00;;;;5078624;28;20189;-70
2022/12/19 01:57:13;;;;;;;0.30;0.30;;;-3.30;99.90;-5.70;96252.00;;;;5071304;28;20287;-70
2022/12/19 01:59:46;;;;;;;0.20;0.20;;;-3.40;99.90;-5.70;96113.00;;;;5079193;28;20217;-69
2022/12/19 02:02:21;;;;;;;0.20;0.20;;;-3.40;99.90;-5.70;96301.00;;;;5081067;28;20196;-72
2022/12/19 02:04:49;;;;;;;0.20;0.20;;;-3.30;99.90;-5.70;96273.00;;;;5077404;28;20200;-69
2022/12/19 02:07:20;;;;;;;0.20;0.20;;;-3.40;99.90;-5.70;96214.00;;;;5073301;28;20744;-69
2022/12/19 02:09:54;;;;;;;0.20;0.20;;;-3.40;99.90;-5.70;96298.00;;;;5082095;28;20228;-69
2022/12/19 02:12:39;;;;;;;0.25;0.25;;;-3.40;99.90;-5.70;96394.00;;;;5082471;28;20203;-69
2022/12/19 02:15:12;;;;;;;0.20;0.20;;;-3.40;99.90;-5.60;96403.00;;;;5078268;28;20664;-69
2022/12/19 02:17:55;;;;;;;0.20;0.20;;;-3.40;99.90;-5.70;96361.00;;;;5098781;28;20216;-72
2022/12/19 02:21:07;;;;;;;0.20;0.20;;;-3.40;99.90;-5.70;96813.00;;;;5065753;28;20239;-71
2022/12/19 02:24:37;;;;;;;0.25;0.25;;;-3.50;99.90;-5.80;96335.00;;;;5088952;28;20235;-70
2022/12/19 02:28:01;;;;;;;0.20;0.20;;;-3.50;99.90;-5.80;96207.00;;;;4964096;28;20208;-72
2022/12/19 02:30:47;;;;;;;0.20;0.20;;;-3.50;99.90;-5.80;96438.00;;;;5018448;28;20209;-71
2022/12/19 02:33:24;;;;;;;0.20;0.20;;;-3.50;99.90;-5.70;96870.00;;;;5076821;28;20667;-69
2022/12/19 02:35:57;;;;;;;0.20;0.20;;;-3.50;99.90;-5.80;96078.00;;;;5091050;28;20570;-72
2022/12/19 02:38:33;;;;;;;0.20;0.20;;;-3.50;99.90;-5.50;97794.00;;;;5079862;28;20232;-73
2022/12/19 02:41:06;;;;;;;0.20;0.20;;;-3.50;99.90;-5.40;97788.00;;;;5072706;28;20688;-72
2022/12/19 02:43:42;;;;;;;0.20;0.20;;;-3.60;99.90;-5.40;97776.00;;;;5093127;28;20621;-70
2022/12/19 02:46:13;;;;;;;0.20;0.20;;;-3.50;99.90;-5.40;97818.00;;;;5083462;28;20571;-73
2022/12/19 02:48:45;;;;;;;0.20;0.20;;;-3.60;99.90;-5.40;97729.00;;;;5074448;28;20275;-73
2022/12/19 02:51:13;;;;;;;0.30;0.30;;;-3.60;99.90;-5.60;97340.00;;;;5069117;28;20201;-70
2022/12/19 02:53:43;;;;;;;0.30;0.30;;;-3.60;99.90;-5.40;97735.00;;;;5081090;28;20288;-71
2022/12/19 02:56:39;;;;;;;0.20;0.20;;;-3.60;99.90;-5.90;96268.00;;;;5078751;28;20202;-73
2022/12/19 02:59:33;;;;;;;0.30;0.30;;;-3.60;99.90;-5.90;96370.00;;;;5066169;28;20230;-73
2022/12/19 03:02:18;;;;;;;0.20;0.20;;;-3.60;99.90;-5.90;96085.00;;;;5091747;28;20263;-73
2022/12/19 03:04:58;;;;;;;0.20;0.20;;;-3.60;99.90;-5.90;96010.00;;;;5086246;28;20204;-72
2022/12/19 03:07:37;;;;;;;0.20;0.20;;;-3.60;99.90;-5.90;96288.00;;;;5082969;28;20198;-72
2022/12/19 03:10:20;;;;;;;0.20;0.20;;;-3.60;99.90;-6.00;96056.00;;;;5084574;28;20601;-72
2022/12/19 03:12:57;;;;;;;0.20;0.20;;;-3.70;99.90;-6.00;96072.00;;;;5084388;28;20196;-74
2022/12/19 03:15:27;;;;;;;0.20;0.20;;;-3.60;99.90;-5.90;96164.00;;;;5075204;28;20206;-71
2022/12/19 03:18:00;;;;;;;0.20;0.20;;;-3.60;99.90;-6.00;96208.00;;;;5066432;28;20226;-72
2022/12/19 03:20:42;;;;;;;0.20;0.20;;;-3.70;99.90;-6.10;96069.00;;;;5070683;28;20213;-70
2022/12/19 03:23:11;;;;;;;0.20;0.20;;;-3.70;99.90;-6.00;96384.00;;;;5074712;28;20285;-71
2022/12/19 03:25:44;;;;;;;0.20;0.20;;;-3.70;99.90;-5.90;96563.00;;;;5086942;28;20604;-72
2022/12/19 03:28:20;;;;;;;0.20;0.20;;;-3.70;99.90;-6.00;96295.00;;;;5079510;28;20668;-70
2022/12/19 03:30:50;;;;;;;0.20;0.20;;;-3.70;99.90;-6.00;96264.00;;;;5079190;28;20196;-70
2022/12/19 03:33:22;;;;;;;0.20;0.20;;;-3.70;99.90;-6.00;96201.00;;;;5075420;28;20223;-70
2022/12/19 03:35:53;;;;;;;0.22;0.22;;;-3.70;99.90;-6.00;96175.00;;;;5082005;28;20193;-71
2022/12/19 03:38:22;;;;;;;0.30;0.30;;;-3.70;99.90;-6.00;96192.00;;;;5073630;28;20777;-70
2022/12/19 03:40:52;;;;;;;0.25;0.25;;;-3.70;99.90;-6.00;96385.00;;;;5074614;28;20196;-71
2022/12/19 03:43:22;;;;;;;0.30;0.30;;;-3.70;99.90;-6.10;96146.00;;;;5080499;28;20259;-71
2022/12/19 03:45:59;;;;;;;0.20;0.20;;;-3.70;99.90;-6.00;96235.00;;;;5078045;28;20205;-71
2022/12/19 03:48:36;;;;;;;0.20;0.20;;;-3.70;99.90;-6.00;96279.00;;;;5077830;28;20252;-70
2022/12/19 03:51:20;;;;;;;0.30;0.30;;;-3.70;99.90;-6.00;96331.00;;;;5074330;28;20203;-71
2022/12/19 03:54:02;;;;;;;0.30;0.30;;;-3.70;99.90;-6.00;96275.00;;;;5084851;28;20633;-71
2022/12/19 03:56:41;;;;;;;0.30;0.30;;;-3.70;99.90;-6.00;96236.00;;;;5073795;28;20205;-71
2022/12/19 03:59:17;;;;;;;0.22;0.22;;;-3.70;99.90;-5.90;96262.00;;;;5078004;28;20224;-71
2022/12/19 04:01:48;;;;;;;0.30;0.30;;;-3.60;99.90;-6.10;96196.00;;;;5074873;28;20194;-70
2022/12/19 04:04:20;;;;;;;0.20;0.20;;;-3.60;99.90;-5.90;96216.00;;;;5082804;28;20193;-72
2022/12/19 04:06:49;;;;;;;0.20;0.20;;;-3.60;99.90;-5.90;96284.00;;;;5083614;28;20201;-71
2022/12/19 04:09:21;;;;;;;0.20;0.20;;;-3.60;99.90;-5.90;96187.00;;;;5088326;28;20250;-71
2022/12/19 04:11:55;;;;;;;0.20;0.20;;;-3.60;99.90;-5.90;96219.00;;;;5085091;28;20243;-70
2022/12/19 04:14:29;;;;;;;0.20;0.20;;;-3.60;99.90;-5.90;96200.00;;;;5081462;28;20197;-71
2022/12/19 04:17:08;;;;;;;0.20;0.20;;;-3.60;99.90;-5.90;96200.00;;;;5085099;28;20598;-70
2022/12/19 04:19:47;;;;;;;0.20;0.20;;;-3.60;99.90;-5.90;96112.00;;;;5067175;28;20230;-71
2022/12/19 04:22:32;;;;;;;0.20;0.20;;;-3.60;99.90;-5.90;96251.00;;;;5074877;28;20197;-71
2022/12/19 04:25:09;;;;;;;0.20;0.20;;;-3.60;99.90;-5.90;96214.00;;;;5072815;28;20622;-70
2022/12/19 04:27:44;;;;;;;0.20;0.20;;;-3.60;99.90;-5.90;96178.00;;;;5080875;28;20205;-72
2022/12/19 04:30:16;;;;;;;0.20;0.20;;;-3.60;99.90;-5.90;96333.00;;;;5078957;28;20265;-70
2022/12/19 04:32:46;;;;;;;0.20;0.20;;;-3.60;99.90;-5.90;96399.00;;;;5092567;28;20198;-70
2022/12/19 04:35:17;;;;;;;0.20;0.20;;;-3.60;99.90;-5.80;96278.00;;;;5083417;28;20209;-71
2022/12/19 04:37:45;;;;;;;0.20;0.20;;;-3.60;99.90;-5.80;96315.00;;;;5070574;28;20185;-70
2022/12/19 04:40:14;;;;;;;0.20;0.20;;;-3.50;99.90;-5.80;96291.00;;;;5065433;28;20225;-70
2022/12/19 04:42:42;;;;;;;0.30;0.30;;;-3.50;99.90;-5.70;96302.00;;;;5066840;28;20201;-71
2022/12/19 04:45:11;;;;;;;0.20;0.20;;;-3.50;99.90;-5.80;96259.00;;;;5061874;28;20193;-71
2022/12/19 04:47:39;;;;;;;0.22;0.22;;;-3.50;99.90;-6.00;96297.00;;;;5072244;28;20873;-69
2022/12/19 04:50:10;;;;;;;0.20;0.20;;;-3.50;99.90;-5.80;96255.00;;;;5071086;28;20221;-70
2022/12/19 04:52:39;;;;;;;0.30;0.30;;;-3.50;99.90;-5.70;96277.00;;;;5067912;28;20209;-70
2022/12/19 04:55:09;;;;;;;0.20;0.20;;;-3.50;99.90;-5.80;96183.00;;;;5084023;28;20288;-71
2022/12/19 04:57:37;;;;;;;0.20;0.20;;;-3.50;99.90;-5.80;96251.00;;;;5069725;28;20208;-70
2022/12/19 05:00:07;;;;;;;0.20;0.20;;;-3.50;99.90;-5.80;96261.00;;;;5084418;28;20202;-71
2022/12/19 05:02:37;;;;;;;0.20;0.20;;;-3.50;99.90;-5.80;96274.00;;;;5071235;28;20220;-69
2022/12/19 05:05:06;;;;;;;0.20;0.20;;;-3.50;99.90;-5.90;96247.00;;;;5083165;28;20205;-71
2022/12/19 05:07:35;;;;;;;0.30;0.30;;;-3.60;99.90;-5.90;96252.00;;;;5067006;28;20285;-71
2022/12/19 05:10:06;;;;;;;0.20;0.20;;;-3.60;99.90;-5.90;96203.00;;;;5083790;28;20220;-70
2022/12/19 05:12:34;;;;;;;0.20;0.20;;;-3.60;99.90;-5.90;96229.00;;;;5070690;28;20279;-70
2022/12/19 05:15:03;;;;;;;0.20;0.20;;;-3.60;99.90;-5.80;96307.00;;;;5078399;28;20800;-70
2022/12/19 05:17:31;;;;;;;0.20;0.20;;;-3.50;99.90;-5.80;96278.00;;;;5080854;28;20194;-71
2022/12/19 05:19:59;;;;;;;0.20;0.20;;;-3.50;99.90;-5.80;96278.00;;;;5067455;28;20226;-71
2022/12/19 05:22:27;;;;;;;0.30;0.30;;;-3.50;99.90;-5.80;96255.00;;;;5061592;28;20846;-71
2022/12/19 05:24:55;;;;;;;0.20;0.20;;;-3.60;99.90;-5.80;96374.00;;;;5066803;28;20240;-71
2022/12/19 05:27:25;;;;;;;0.20;0.20;;;-3.50;99.90;-5.80;96236.00;;;;5070236;28;20201;-70
2022/12/19 05:29:53;;;;;;;0.20;0.20;;;-3.60;99.90;-5.90;96257.00;;;;5068405;28;20223;-70
2022/12/19 05:32:22;;;;;;;0.30;0.30;;;-3.60;99.90;-5.90;96336.00;;;;5075190;28;20562;-75
2022/12/19 05:34:50;;;;;;;0.30;0.30;;;-3.60;99.90;-5.90;96239.00;;;;5080337;28;20248;-75
2022/12/19 05:37:18;;;;;;;0.30;0.30;;;-3.60;99.90;-5.90;96242.00;;;;5076287;28;20625;-75
2022/12/19 05:39:46;;;;;;;0.20;0.20;;;-3.60;99.90;-5.90;96198.00;;;;5074978;28;20256;-75
2022/12/19 05:42:14;;;;;;;0.30;0.30;;;-3.60;99.90;-5.90;96375.00;;;;5069630;28;20182;-75
2022/12/19 05:44:44;;;;;;;0.30;0.30;;;-3.60;99.90;-5.90;96391.00;;;;5070601;28;20196;-75
2022/12/19 05:47:12;;;;;;;0.30;0.30;;;-3.60;99.90;-5.80;96378.00;;;;5078676;28;20216;-75
2022/12/19 05:49:41;;;;;;;0.20;0.20;;;-3.50;99.90;-5.80;96402.00;;;;5072630;28;20591;-74
2022/12/19 05:52:09;;;;;;;0.20;0.20;;;-3.50;99.90;-5.90;96383.00;;;;5073306;28;20204;-74
2022/12/19 05:54:37;;;;;;;0.20;0.20;;;-3.60;99.90;-5.80;96531.00;;;;5071559;28;20282;-75
2022/12/19 05:57:05;;;;;;;0.20;0.20;;;-3.60;99.90;-5.80;96441.00;;;;5071926;28;20220;-74
2022/12/19 05:59:34;;;;;;;0.28;0.28;;;-3.60;99.90;-6.00;96411.00;;;;5073485;28;20225;-75
2022/12/19 06:02:04;;;;;;;0.20;0.20;;;-3.60;99.90;-6.10;96721.00;;;;5072527;28;20247;-75
2022/12/19 06:04:32;;;;;;;0.20;0.20;;;-3.60;99.90;-5.80;96758.00;;;;5074922;28;20228;-74
2022/12/19 06:07:00;;;;;;;0.30;0.30;;;-3.50;99.90;-5.70;96768.00;;;;5070623;28;20189;-75
2022/12/19 06:09:31;;;;;;;0.20;0.20;;;-3.50;99.90;-5.70;96889.00;;;;5066775;28;20232;-75
2022/12/19 06:11:59;;;;;;;0.20;0.20;;;-3.50;99.90;-5.60;97043.00;;;;5067757;28;20197;-75
2022/12/19 06:14:27;;;;;;;0.22;0.22;;;-3.50;99.90;-5.60;97089.00;;;;5066357;28;20205;-75
2022/12/19 06:16:55;;;;;;;0.20;0.20;;;-3.50;99.90;-5.50;97047.00;;;;5074087;28;20190;-75
2022/12/19 06:19:25;;;;;;;0.22;0.22;;;-3.40;99.90;-5.50;96996.00;;;;5065892;28;20263;-75
2022/12/19 06:21:53;;;;;;;0.20;0.20;;;-3.40;99.90;-5.50;97097.00;;;;5073178;28;20251;-75
2022/12/19 06:24:24;;;;;;;0.20;0.20;;;-3.40;99.90;-5.50;97101.00;;;;5079708;28;20198;-75
2022/12/19 06:26:52;;;;;;;0.20;0.20;;;-3.40;99.90;-5.50;97092.00;;;;5084363;28;20209;-75
2022/12/19 06:29:21;;;;;;;0.20;0.20;;;-3.40;99.90;-5.50;97058.00;;;;5075805;28;20267;-75
2022/12/19 06:31:51;;;;;;;0.20;0.20;;;-3.30;99.90;-5.40;97055.00;;;;5079731;28;20201;-76
2022/12/19 06:34:20;;;;;;;0.20;0.20;;;-3.30;99.90;-5.60;97050.00;;;;5082440;28;20197;-75
2022/12/19 06:37:09;;;;;;;0.20;0.20;;;-3.30;99.90;-5.40;97057.00;;;;5064425;28;20272;-75
2022/12/19 06:39:38;;;;;;;0.28;0.28;;;-3.30;99.90;-5.50;97048.00;;;;5080470;28;20229;-77
2022/12/19 06:42:23;;;;;;;0.20;0.20;;;-3.30;99.90;-5.40;97072.00;;;;5082855;28;20214;-76
2022/12/19 06:44:53;;;;;;;0.30;0.30;;;-3.30;99.90;-5.30;97252.00;;;;5079944;28;20665;-74
2022/12/19 06:47:24;;;;;;;0.20;0.20;;;-3.30;99.90;-5.40;97188.00;;;;5087938;28;20207;-75
2022/12/19 06:49:53;;;;;;;0.30;0.30;;;-3.30;99.90;-5.30;97254.00;;;;5073085;28;20217;-75
2022/12/19 06:52:22;;;;;;;0.20;0.20;;;-3.30;99.90;-5.30;97126.00;;;;5083993;28;20212;-75
2022/12/19 06:54:50;;;;;;;0.20;0.20;;;-3.30;99.90;-5.30;97186.00;;;;5085812;28;20276;-75
2022/12/19 06:57:18;;;;;;;0.22;0.22;;;-3.20;99.90;-5.30;97147.00;;;;5074227;28;20201;-75
2022/12/19 06:59:46;;;;;;;0.22;0.22;;;-3.20;99.90;-5.30;97163.00;;;;5080257;28;20222;-75
2022/12/19 07:02:26;;;;;;;0.20;0.20;;;-3.20;99.90;-5.30;97174.00;;;;5082604;28;20201;-75
2022/12/19 07:05:02;;;;;;;0.20;0.20;;;-3.20;99.90;-5.20;97179.00;;;;5065693;28;20267;-75
2022/12/19 07:07:32;;;;;;;0.22;0.22;;;-3.20;99.90;-5.20;97148.00;;;;5078057;28;20262;-74
2022/12/19 07:10:00;;;;;;;0.30;0.30;;;-3.10;99.90;-5.70;97149.00;;;;5071412;28;20221;-75
2022/12/19 07:12:28;;;;;;;0.20;0.20;;;-3.10;99.90;-5.20;97126.00;;;;5081625;28;20281;-74
2022/12/19 07:14:57;;;;;;;0.25;0.25;;;-3.10;99.90;-5.10;97144.00;;;;5075728;28;20192;-75
2022/12/19 07:17:28;;;;;;;0.25;0.25;;;-3.10;99.90;-5.00;97193.00;;;;5081044;28;20251;-75
2022/12/19 07:19:58;;;;;;;0.25;0.25;;;-3.00;99.90;-5.10;97149.00;;;;5067029;28;20225;-75
2022/12/19 07:22:33;;;;;;;0.28;0.28;;;-3.10;99.90;-5.10;97207.00;;;;5070578;28;20262;-75
2022/12/19 07:25:04;;;;;;;0.20;0.20;;;-3.00;99.90;-5.10;97197.00;;;;5069986;28;20246;-75
2022/12/19 07:27:33;;;;;;;0.20;0.20;;;-3.00;99.90;-5.00;97260.00;;;;5081798;28;20194;-75
2022/12/19 07:30:06;;;;;;;0.20;0.20;;;-3.00;99.90;-5.00;97229.00;;;;5078580;28;20258;-75
2022/12/19 07:32:35;;;;;;;0.22;0.22;;;-2.90;99.90;-4.90;97263.00;;;;5082917;28;20688;-75
2022/12/19 07:35:03;;;;;;;0.20;0.20;;;-2.90;99.90;-4.90;97195.00;;;;5083307;28;20667;-75
2022/12/19 07:37:33;;;;;;;0.20;0.20;;;-2.90;99.90;-4.90;97228.00;;;;5080224;28;20208;-75
2022/12/19 07:40:02;;;;;;;0.20;0.20;;;-2.80;99.90;-4.90;97204.00;;;;5085922;28;20216;-77
2022/12/19 07:42:31;;;;;;;0.20;0.20;;;-2.90;99.90;-4.80;97258.00;;;;5088023;28;20200;-75
2022/12/19 07:45:00;;;;;;;0.20;0.20;;;-2.80;99.90;-4.90;97234.00;;;;5082833;28;20190;-75
2022/12/19 07:47:28;;;;;;;0.30;0.30;;;-2.80;99.90;-4.80;97214.00;;;;5088334;28;20696;-75
2022/12/19 07:49:56;;;;;;;0.20;0.20;;;-2.80;99.90;-4.80;97200.00;;;;5070392;28;20244;-75
2022/12/19 07:52:25;;;;;;;0.20;0.20;;;-2.70;99.90;-4.70;97206.00;;;;5082167;28;20535;-75
2022/12/19 07:54:54;;;;;;;0.20;0.20;;;-2.70;99.90;-4.70;97240.00;;;;5085290;28;20201;-75
2022/12/19 07:57:22;;;;;;;0.20;0.20;;;-2.70;99.90;-4.60;97217.00;;;;5082342;28;20198;-75
2022/12/19 07:59:50;;;;;;;0.20;0.20;;;-2.60;99.90;-4.60;97248.00;;;;5088001;28;20259;-75
2022/12/19 08:02:19;;;;;;;0.20;0.20;;;-2.50;99.90;-4.50;97249.00;;;;5082595;28;20296;-75
2022/12/19 08:04:47;;;;;;;0.20;0.20;;;-2.50;99.90;-4.50;97257.00;;;;5089993;28;20236;-75
2022/12/19 08:07:15;;;;;;;0.20;0.20;;;-2.50;99.90;-4.50;97228.00;;;;5094759;28;20590;-75
2022/12/19 08:09:43;;;;;;;0.20;0.20;;;-2.40;99.90;-4.40;97297.00;;;;5098122;28;20577;-75
2022/12/19 08:12:12;;;;;;;0.20;0.20;;;-2.40;99.90;-4.40;97254.00;;;;5088222;28;20208;-75
2022/12/19 08:14:40;;;;;;;0.20;0.20;;;-2.40;99.90;-4.40;97243.00;;;;5089818;28;20231;-75
2022/12/19 08:17:09;;;;;;;0.20;0.20;;;-2.40;99.90;-4.30;97279.00;;;;5080954;28;20212;-75
2022/12/19 08:19:47;;;;;;;0.20;0.20;;;-2.30;99.90;-4.30;97249.00;;;;5073398;28;20283;-75
2022/12/19 08:22:15;;;;;;;0.20;0.20;;;-2.30;99.90;-4.30;97263.00;;;;5073786;28;20201;-75
2022/12/19 08:24:44;;;;;;;0.20;0.20;;;-2.30;99.90;-4.30;97215.00;;;;5084319;28;20198;-75
2022/12/19 08:27:15;;;;;;;0.20;0.20;;;-2.30;99.90;-4.30;97261.00;;;;5081873;28;20209;-75
2022/12/19 08:29:43;;;;;;;0.20;0.20;;;-2.30;99.90;-4.30;97273.00;;;;5085917;28;20259;-75
2022/12/19 08:32:11;;;;;;;0.20;0.20;;;-2.30;99.90;-4.30;97258.00;;;;5085270;28;20201;-75
2022/12/19 08:34:48;;;;;;;0.20;0.20;;;-2.30;99.90;-4.30;97252.00;;;;5081419;28;20662;-75
2022/12/19 08:37:17;;;;;;;0.20;0.20;;;-2.30;99.90;-4.30;97227.00;;;;5082109;28;20222;-75
2022/12/19 08:39:45;;;;;;;0.20;0.20;;;-2.30;99.90;-4.30;97243.00;;;;5078211;28;20224;-75
2022/12/19 08:42:15;;;;;;;0.20;0.20;;;-2.30;99.90;-4.30;97220.00;;;;5081555;28;20611;-75
2022/12/19 08:44:43;;;;;;;0.20;0.20;;;-2.30;99.90;-4.30;97253.00;;;;5084962;28;20203;-75
2022/12/19 08:47:11;;;;;;;0.20;0.20;;;-2.30;99.90;-4.30;97243.00;;;;5079813;28;20565;-75
2022/12/19 08:49:39;;;;;;;0.20;0.20;;;-2.30;99.90;-4.20;97305.00;;;;5077931;28;20597;-75
2022/12/19 08:52:07;;;;;;;0.20;0.20;;;-2.30;99.90;-4.30;97259.00;;;;5071730;28;20212;-75
2022/12/19 08:54:36;;;;;;;0.20;0.20;;;-2.30;99.90;-4.20;97325.00;;;;5084161;28;20201;-75
2022/12/19 08:57:04;;;;;;;0.20;0.20;;;-2.20;99.90;-4.30;97168.00;;;;5072629;28;20216;-75
2022/12/19 08:59:33;;;;;;;0.20;0.20;;;-2.20;99.90;-4.40;96464.00;;;;5087587;28;20281;-75
2022/12/19 09:02:02;;;;;;;0.20;0.20;;;-2.20;99.90;-4.20;97153.00;;;;5080785;28;20301;-76
2022/12/19 09:04:33;;;;;;;0.20;0.20;;;-2.20;99.90;-4.20;97104.00;;;;5081275;28;20189;-76
2022/12/19 09:07:21;;;;;;;0.20;0.20;;;-2.20;99.90;-4.20;97150.00;;;;5072703;28;20310;-71
2022/12/19 09:09:50;;;;;;;0.20;0.20;;;-2.20;99.90;-4.10;97202.00;;;;5087810;28;20701;-73
2022/12/19 09:12:18;;;;;;;0.20;0.20;;;-2.10;99.90;-4.10;97165.00;;;;5080909;28;20220;-73
2022/12/19 09:14:47;;;;;;;0.20;0.20;;;-2.10;99.90;-4.00;97192.00;;;;5082591;28;20206;-72
2022/12/19 09:17:15;;;;;;;0.20;0.20;;;-2.00;99.90;-4.00;97191.00;;;;5083157;28;20185;-71
2022/12/19 09:19:44;;;;;;;0.20;0.20;;;-2.00;99.90;-4.00;97179.00;;;;5078111;28;20218;-73
2022/12/19 09:22:16;;;;;;;0.20;0.20;;;-2.00;99.90;-4.00;97213.00;;;;5071912;28;20225;-71
2022/12/19 09:24:44;;;;;;;0.20;0.20;;;-2.00;99.90;-4.00;97173.00;;;;5082926;28;20204;-73
2022/12/19 09:27:12;;;;;;;0.20;0.20;;;-2.00;99.90;-3.90;97203.00;;;;5084810;28;20213;-73
2022/12/19 09:29:42;;;;;;;0.22;0.22;;;-2.00;99.90;-3.90;97171.00;;;;5083336;28;20241;-71
2022/12/19 09:32:12;;;;;;;0.20;0.20;;;-1.90;99.90;-3.90;97178.00;;;;5078125;28;20204;-72
2022/12/19 09:34:40;;;;;;;0.20;0.20;;;-1.90;99.90;-3.90;97154.00;;;;5081893;28;20201;-72
2022/12/19 09:37:10;;;;;;;0.20;0.20;;;-1.90;99.90;-3.90;97187.00;;;;5072607;28;20255;-72
2022/12/19 09:39:46;;;;;;;0.20;0.20;;;-1.90;99.90;-3.90;97155.00;;;;5078159;28;20270;-71
2022/12/19 09:42:49;;;;;;;0.20;0.20;;;-1.90;99.90;-3.90;97177.00;;;;5081664;28;20224;-71
2022/12/19 09:45:52;;;;;;;0.20;0.20;;;-1.90;99.90;-3.90;97166.00;;;;5077910;28;20243;-72
2022/12/19 09:48:21;;;;;;;0.20;0.20;;;-1.90;99.90;-3.80;97124.00;;;;5076563;28;20220;-71
2022/12/19 09:51:00;;;;;;;0.20;0.20;;;-1.80;99.90;-3.80;97103.00;;;;5070195;28;20610;-72
2022/12/19 09:53:55;;;;;;;0.20;0.20;;;-1.90;99.90;-3.80;97168.00;;;;5093173;28;20198;-72
2022/12/19 09:56:28;;;;;;;0.20;0.20;;;-1.80;99.90;-3.80;97195.00;;;;5083315;28;20537;-71
2022/12/19 09:59:06;;;;;;;0.20;0.20;;;-1.80;99.90;-3.70;97145.00;;;;5073322;28;20269;-71
2022/12/19 10:01:47;;;;;;;0.20;0.20;;;-1.70;99.90;-3.70;97183.00;;;;5074534;28;20275;-71
2022/12/19 10:04:19;;;;;;;0.20;0.20;;;-1.70;99.90;-3.70;97158.00;;;;5078980;28;20196;-71
2022/12/19 10:06:47;;;;;;;0.20;0.20;;;-1.70;99.90;-3.70;97152.00;;;;5077461;28;20201;-71
2022/12/19 10:09:35;;;;;;;0.20;0.20;;;-1.70;99.90;-3.60;97140.00;;;;5086062;28;20216;-74
2022/12/19 10:12:52;;;;;;;0.20;0.20;;;-1.60;99.90;-3.60;97179.00;;;;5079370;28;20221;-72
2022/12/19 10:15:42;;;;;;;0.20;0.20;;;-1.60;99.90;-3.50;97163.00;;;;5073475;28;20196;-71
2022/12/19 10:18:31;;;;;;;0.20;0.20;;;-1.60;99.90;-3.60;97048.00;;;;5074169;28;20910;-71
2022/12/19 10:21:08;;;;;;;0.20;0.20;;;-1.60;99.90;-3.50;97144.00;;;;5077378;28;20218;-72
2022/12/19 10:23:59;;;;;;;0.20;0.20;;;-1.50;99.90;-3.50;97165.00;;;;5083460;28;20660;-71
2022/12/19 10:26:36;;;;;;;0.20;0.20;;;-1.50;99.90;-3.40;97059.00;;;;5083154;28;20204;-71
2022/12/19 10:29:35;;;;;;;0.20;0.20;;;-1.40;99.90;-3.30;97179.00;;;;5075205;28;20236;-71
2022/12/19 10:32:19;;;;;;;0.20;0.20;;;-1.40;99.90;-3.40;97108.00;;;;5069333;28;20304;-71
2022/12/19 10:34:50;;;;;;;0.20;0.20;;;-1.40;99.90;-3.30;97116.00;;;;5080875;28;20209;-71
2022/12/19 10:37:24;;;;;;;0.20;0.20;;;-1.30;99.90;-3.40;97095.00;;;;5082433;28;20600;-72
2022/12/19 10:40:20;;;;;;;0.20;0.20;;;-1.30;99.90;-3.30;97107.00;;;;5089064;28;20278;-71
2022/12/19 10:43:00;;;;;;;0.20;0.20;;;-1.30;99.90;-3.20;97112.00;;;;5076962;28;20221;-72
2022/12/19 10:45:45;;;;;;;0.20;0.20;;;-1.30;99.90;-3.20;97100.00;;;;5079111;28;20201;-72
2022/12/19 10:48:18;;;;;;;0.20;0.20;;;-1.20;99.90;-3.20;97091.00;;;;5078934;28;20227;-71
2022/12/19 10:50:49;;;;;;;0.20;0.20;;;-1.20;99.90;-3.10;97101.00;;;;5072016;28;20212;-72
2022/12/19 10:53:28;;;;;;;0.20;0.20;;;-1.20;99.90;-3.10;97075.00;;;;5074106;28;20278;-71
2022/12/19 10:56:02;;;;;;;0.20;0.20;;;-1.10;99.90;-3.00;97100.00;;;;5069164;28;20228;-71
2022/12/19 10:58:34;;;;;;;0.20;0.20;;;-1.10;99.90;-3.00;97114.00;;;;5080150;28;20304;-75
2022/12/19 11:01:13;;;;;;;0.20;0.20;;;-1.00;99.90;-3.00;97088.00;;;;5083010;28;20212;-75
2022/12/19 11:03:44;;;;;;;0.20;0.20;;;-1.10;99.90;-3.00;97070.00;;;;5080650;28;20588;-75
2022/12/19 11:06:50;;;;;;;0.20;0.20;;;-1.00;99.90;-2.90;97098.00;;;;5083793;28;20727;-76
2022/12/19 11:09:30;;;;;;;0.20;0.20;;;-1.00;99.90;-2.90;97064.00;;;;5032940;28;20253;-75
2022/12/19 11:12:12;;;;;;;0.20;0.20;;;-0.90;99.90;-2.90;97078.00;;;;5018262;28;20209;-75
2022/12/19 11:15:15;;;;;;;0.20;0.20;;;-0.90;99.90;-2.80;97090.00;;;;5060624;28;20244;-75
2022/12/19 11:18:08;;;;;;;0.20;0.20;;;-0.90;99.90;-2.80;97077.00;;;;5069047;28;20296;-74
2022/12/19 11:21:02;;;;;;;0.20;0.20;;;-0.80;99.90;-2.70;97120.00;;;;5077055;28;20224;-75
2022/12/19 11:23:55;;;;;;;0.17;0.17;;;-0.70;99.90;-2.70;97113.00;;;;5080916;28;20748;-75
2022/12/19 11:26:48;;;;;;;0.10;0.10;;;-0.70;99.90;-2.70;97121.00;;;;5069524;28;20222;-75